Time;durP1;ratioP1;P1;durP2;ratioP2;P2;SDS_P1;SDS_P2;PMS_P1;PMS_P2;Temp;Humidity;BMP_temperature;BMP_pressure;BME280_temperature;BME280_humidity;BME280_pressure;Samples;Min_cycle;Max_cycle;Signal;HPM_P1;HPM_P2
2024/01/17 00:01:49;;;;;;;;;;;18.80;58.90;;;;;;5100959;27;43028;-80
2024/01/17 00:04:15;;;;;;;;;;;18.80;58.90;;;;;;5101973;27;43208;-80
2024/01/17 00:06:41;;;;;;;;;;;18.80;59.00;;;;;;5100636;27;43094;-79
2024/01/17 00:09:07;;;;;;;;;;;18.80;59.00;;;;;;5104060;27;42883;-79
2024/01/17 00:11:33;;;;;;;;;;;18.80;59.00;;;;;;5104418;27;43290;-79
2024/01/17 00:13:58;;;;;;;;;;;18.80;59.50;;;;;;5104371;27;42886;-79
2024/01/17 00:16:24;;;;;;;;;;;18.80;59.10;;;;;;5104978;27;43011;-79
2024/01/17 00:18:49;;;;;;;;;;;18.80;59.10;;;;;;5103773;27;42951;-79
2024/01/17 00:21:15;;;;;;;;;;;18.80;59.10;;;;;;5103768;27;42919;-79
2024/01/17 00:23:40;;;;;;;;;;;18.80;59.10;;;;;;5104255;27;42858;-78
2024/01/17 00:26:06;;;;;;;;;;;18.80;59.20;;;;;;5104614;27;43912;-79
2024/01/17 00:28:32;;;;;;;;;;;18.80;59.20;;;;;;5102687;27;43026;-80
2024/01/17 00:30:57;;;;;;;;;;;18.80;59.20;;;;;;5106790;27;42889;-80
2024/01/17 00:33:23;;;;;;;;;;;18.80;59.20;;;;;;5104916;27;43032;-79
2024/01/17 00:35:48;;;;;;;;;;;18.80;59.20;;;;;;5101654;27;43443;-80
2024/01/17 00:38:14;;;;;;;;;;;18.80;59.30;;;;;;5107849;27;43086;-80
2024/01/17 00:40:39;;;;;;;;;;;18.80;59.20;;;;;;5102292;27;43559;-79
2024/01/17 00:43:05;;;;;;;;;;;18.80;59.20;;;;;;5107409;27;42943;-80
2024/01/17 00:45:31;;;;;;;;;;;18.80;59.30;;;;;;5107270;27;43027;-80
2024/01/17 00:47:56;;;;;;;;;;;18.80;59.20;;;;;;5107875;27;42971;-80
2024/01/17 00:50:22;;;;;;;;;;;18.80;59.30;;;;;;5104817;27;43540;-80
2024/01/17 00:52:47;;;;;;;;;;;18.80;59.30;;;;;;5107657;27;42963;-79
2024/01/17 00:55:13;;;;;;;;;;;18.80;59.30;;;;;;5107704;27;43075;-80
2024/01/17 00:57:39;;;;;;;;;;;18.80;59.40;;;;;;5107001;27;42953;-80
2024/01/17 01:00:05;;;;;;;;;;;18.80;59.30;;;;;;5106937;27;43694;-79
2024/01/17 01:02:31;;;;;;;;;;;18.80;59.40;;;;;;5102490;27;43440;-80
2024/01/17 01:04:56;;;;;;;;;;;18.80;59.50;;;;;;5106821;27;43041;-80
2024/01/17 01:07:21;;;;;;;;;;;18.80;59.60;;;;;;5108377;27;43131;-80
2024/01/17 01:09:47;;;;;;;;;;;18.80;59.50;;;;;;5107393;27;43006;-79
2024/01/17 01:12:12;;;;;;;;;;;18.80;59.50;;;;;;5107553;27;43140;-80
2024/01/17 01:14:38;;;;;;;;;;;18.80;59.50;;;;;;5107603;27;43594;-79
2024/01/17 01:17:04;;;;;;;;;;;18.80;59.60;;;;;;5107041;27;43111;-81
2024/01/17 01:19:29;;;;;;;;;;;18.80;59.60;;;;;;5098498;27;43997;-80
2024/01/17 01:21:55;;;;;;;;;;;18.80;59.60;;;;;;5102138;27;42905;-80
2024/01/17 01:24:21;;;;;;;;;;;18.80;59.50;;;;;;5106883;27;42992;-80
2024/01/17 01:26:47;;;;;;;;;;;18.80;59.50;;;;;;5106645;27;42973;-79
2024/01/17 01:29:12;;;;;;;;;;;18.80;59.50;;;;;;5106177;27;43396;-80
2024/01/17 01:31:38;;;;;;;;;;;18.80;59.60;;;;;;5106722;27;42790;-80
2024/01/17 01:34:03;;;;;;;;;;;18.80;59.50;;;;;;5088469;27;43645;-79
2024/01/17 01:36:29;;;;;;;;;;;18.80;59.60;;;;;;5105872;27;42916;-79
2024/01/17 01:38:54;;;;;;;;;;;18.80;59.70;;;;;;5095300;27;42948;-79
2024/01/17 01:41:20;;;;;;;;;;;18.80;59.80;;;;;;5087646;27;42988;-79
2024/01/17 01:43:45;;;;;;;;;;;18.80;59.90;;;;;;5106615;27;43228;-79
2024/01/17 01:46:13;;;;;;;;;;;18.80;59.90;;;;;;5106153;27;43103;-80
2024/01/17 01:48:40;;;;;;;;;;;18.80;59.70;;;;;;5107330;27;44545;-78
2024/01/17 01:51:05;;;;;;;;;;;20.20;60.60;;;;;;5107455;27;43961;-80
2024/01/17 01:53:32;;;;;;;;;;;18.80;60.00;;;;;;5106953;27;43458;-79
2024/01/17 01:55:58;;;;;;;;;;;18.80;60.00;;;;;;5105187;27;43117;-79
2024/01/17 01:58:24;;;;;;;;;;;18.80;60.00;;;;;;5106097;27;43167;-79
2024/01/17 02:00:51;;;;;;;;;;;18.80;60.10;;;;;;5106825;27;43012;-79
2024/01/17 02:03:16;;;;;;;;;;;18.80;60.20;;;;;;5106439;27;42984;-78
2024/01/17 02:05:43;;;;;;;;;;;18.80;60.20;;;;;;5106575;27;42996;-78
2024/01/17 02:08:08;;;;;;;;;;;18.80;60.20;;;;;;5106588;27;44006;-79
2024/01/17 02:10:35;;;;;;;;;;;18.80;60.20;;;;;;5106823;27;42976;-79
2024/01/17 02:13:00;;;;;;;;;;;18.80;60.20;;;;;;5106022;27;42952;-80
2024/01/17 02:15:26;;;;;;;;;;;18.80;60.20;;;;;;5106517;27;42883;-79
2024/01/17 02:17:51;;;;;;;;;;;18.80;60.40;;;;;;5106020;27;43057;-78
2024/01/17 02:20:17;;;;;;;;;;;18.80;60.40;;;;;;5106534;27;42934;-78
2024/01/17 02:22:42;;;;;;;;;;;18.80;60.30;;;;;;5105863;27;43679;-80
2024/01/17 02:25:08;;;;;;;;;;;18.80;60.40;;;;;;5105336;27;42988;-79
2024/01/17 02:27:34;;;;;;;;;;;18.80;60.50;;;;;;5105464;27;43600;-80
2024/01/17 02:29:59;;;;;;;;;;;18.80;60.50;;;;;;5105476;27;42917;-79
2024/01/17 02:32:25;;;;;;;;;;;18.80;60.50;;;;;;5105900;27;42976;-79
2024/01/17 02:34:51;;;;;;;;;;;18.80;60.50;;;;;;5105279;27;43040;-79
2024/01/17 02:37:17;;;;;;;;;;;18.80;60.50;;;;;;5106084;27;42936;-79
2024/01/17 02:39:42;;;;;;;;;;;18.80;60.60;;;;;;5106069;27;43059;-79
2024/01/17 02:42:08;;;;;;;;;;;18.80;60.60;;;;;;5106104;27;43728;-78
2024/01/17 02:44:33;;;;;;;;;;;18.80;60.60;;;;;;5090059;27;42909;-79
2024/01/17 02:46:59;;;;;;;;;;;18.80;60.50;;;;;;5104771;27;43468;-80
2024/01/17 02:49:24;;;;;;;;;;;18.80;60.60;;;;;;5098545;27;43095;-78
2024/01/17 02:51:50;;;;;;;;;;;18.80;60.70;;;;;;5104657;27;43418;-79
2024/01/17 02:54:15;;;;;;;;;;;18.80;60.80;;;;;;5104193;27;43177;-79
2024/01/17 02:56:41;;;;;;;;;;;18.80;60.80;;;;;;5104779;27;43531;-79
2024/01/17 02:59:07;;;;;;;;;;;18.80;60.80;;;;;;5104681;27;43177;-79
2024/01/17 03:01:33;;;;;;;;;;;18.80;60.80;;;;;;5104279;27;43557;-80
2024/01/17 03:03:58;;;;;;;;;;;18.80;60.80;;;;;;5105116;27;43008;-80
2024/01/17 03:06:24;;;;;;;;;;;18.80;60.80;;;;;;5105969;27;43542;-79
2024/01/17 03:08:49;;;;;;;;;;;18.80;60.80;;;;;;5104768;27;42918;-78
2024/01/17 03:11:15;;;;;;;;;;;18.80;60.80;;;;;;5104574;27;42886;-79
2024/01/17 03:13:40;;;;;;;;;;;18.80;60.90;;;;;;5104907;27;42903;-79
2024/01/17 03:16:06;;;;;;;;;;;18.80;60.90;;;;;;5105249;27;43590;-79
2024/01/17 03:18:31;;;;;;;;;;;18.80;60.90;;;;;;5105298;27;43203;-79
2024/01/17 03:20:57;;;;;;;;;;;18.70;60.80;;;;;;5105788;27;43031;-79
2024/01/17 03:23:22;;;;;;;;;;;18.40;60.80;;;;;;5107432;27;43024;-78
2024/01/17 03:25:48;;;;;;;;;;;18.80;60.90;;;;;;5117426;27;42842;-79
2024/01/17 03:28:13;;;;;;;;;;;18.80;61.00;;;;;;5105786;27;43162;-79
2024/01/17 03:30:39;;;;;;;;;;;18.70;60.90;;;;;;5105678;27;43308;-79
2024/01/17 03:33:04;;;;;;;;;;;18.80;60.40;;;;;;5104445;27;43028;-78
2024/01/17 03:35:30;;;;;;;;;;;18.80;61.00;;;;;;5104606;27;42964;-79
2024/01/17 03:37:57;;;;;;;;;;;18.70;60.90;;;;;;5104859;27;43186;-78
2024/01/17 03:40:23;;;;;;;;;;;18.70;61.00;;;;;;5104210;27;42937;-78
2024/01/17 03:42:48;;;;;;;;;;;18.70;60.90;;;;;;5104634;27;43127;-79
2024/01/17 03:45:14;;;;;;;;;;;18.70;61.00;;;;;;5105127;27;43135;-79
2024/01/17 03:47:39;;;;;;;;;;;18.70;61.00;;;;;;5104744;27;42932;-79
2024/01/17 03:50:05;;;;;;;;;;;18.70;61.00;;;;;;5105512;27;42956;-79
2024/01/17 03:52:31;;;;;;;;;;;18.70;61.00;;;;;;5104765;27;43249;-79
2024/01/17 03:54:56;;;;;;;;;;;18.70;61.00;;;;;;5104581;27;43057;-78
2024/01/17 03:57:22;;;;;;;;;;;18.70;61.00;;;;;;5104494;27;43118;-79
2024/01/17 03:59:47;;;;;;;;;;;18.70;61.00;;;;;;5104688;27;43903;-79
2024/01/17 04:02:13;;;;;;;;;;;18.70;60.50;;;;;;5102508;27;42903;-79
2024/01/17 04:04:39;;;;;;;;;;;18.70;61.10;;;;;;5093591;27;43581;-78
2024/01/17 04:07:04;;;;;;;;;;;18.70;61.70;;;;;;5107439;27;43000;-78
2024/01/17 04:09:30;;;;;;;;;;;18.70;61.10;;;;;;5108124;27;43834;-79
2024/01/17 04:11:55;;;;;;;;;;;18.70;61.10;;;;;;5108317;27;43135;-78
2024/01/17 04:14:21;;;;;;;;;;;18.70;61.10;;;;;;5108149;27;42826;-80
2024/01/17 04:16:46;;;;;;;;;;;18.70;61.10;;;;;;5107874;27;43036;-79
2024/01/17 04:19:12;;;;;;;;;;;18.70;61.10;;;;;;5108182;27;43493;-78
2024/01/17 04:21:38;;;;;;;;;;;18.70;61.20;;;;;;5107661;27;43089;-79
2024/01/17 04:24:03;;;;;;;;;;;18.70;61.10;;;;;;5107718;27;43457;-80
2024/01/17 04:26:29;;;;;;;;;;;18.70;61.20;;;;;;5108348;27;43031;-80
2024/01/17 04:28:54;;;;;;;;;;;18.70;61.10;;;;;;5102879;27;43440;-79
2024/01/17 04:31:29;;;;;;;;;;;18.70;61.30;;;;;;5098471;27;43610;-79
2024/01/17 04:33:55;;;;;;;;;;;18.70;61.10;;;;;;5088853;27;44510;-78
2024/01/17 04:36:22;;;;;;;;;;;18.70;61.10;;;;;;5107726;27;42854;-79
2024/01/17 04:38:48;;;;;;;;;;;18.70;61.10;;;;;;5106669;27;43234;-80
2024/01/17 04:41:15;;;;;;;;;;;18.70;61.20;;;;;;5106978;27;43448;-78
2024/01/17 04:43:41;;;;;;;;;;;18.70;61.10;;;;;;5102542;27;43158;-79
2024/01/17 04:46:07;;;;;;;;;;;18.70;61.20;;;;;;5105246;27;42968;-78
2024/01/17 04:48:32;;;;;;;;;;;18.70;61.20;;;;;;5106995;27;43632;-79
2024/01/17 04:50:58;;;;;;;;;;;18.70;61.20;;;;;;5107097;27;42926;-78
2024/01/17 04:53:24;;;;;;;;;;;18.70;61.20;;;;;;5107412;27;43067;-79
2024/01/17 04:55:50;;;;;;;;;;;18.70;61.20;;;;;;5107213;27;43018;-79
2024/01/17 04:58:17;;;;;;;;;;;18.70;61.10;;;;;;5105115;27;43098;-80
2024/01/17 05:00:46;;;;;;;;;;;18.70;61.10;;;;;;5100271;27;43017;-79
2024/01/17 05:03:11;;;;;;;;;;;18.70;61.10;;;;;;5105828;27;43856;-79
2024/01/17 05:05:37;;;;;;;;;;;18.70;61.20;;;;;;5104691;27;42886;-79
2024/01/17 05:08:03;;;;;;;;;;;18.70;61.20;;;;;;5106997;27;43880;-80
2024/01/17 05:10:29;;;;;;;;;;;18.70;61.20;;;;;;5104480;27;43002;-79
2024/01/17 05:12:54;;;;;;;;;;;18.70;61.20;;;;;;5106750;27;43570;-79
2024/01/17 05:15:20;;;;;;;;;;;18.70;61.20;;;;;;5102565;27;42978;-80
2024/01/17 05:17:46;;;;;;;;;;;18.60;61.10;;;;;;5102134;27;43194;-79
2024/01/17 05:20:13;;;;;;;;;;;18.70;61.80;;;;;;5102763;27;43295;-79
2024/01/17 05:22:39;;;;;;;;;;;18.70;61.20;;;;;;5097542;27;42958;-79
2024/01/17 05:25:06;;;;;;;;;;;18.70;61.30;;;;;;5091717;27;42902;-79
2024/01/17 05:27:32;;;;;;;;;;;18.70;61.30;;;;;;5101027;27;42884;-79
2024/01/17 05:29:58;;;;;;;;;;;18.70;61.30;;;;;;5097221;27;43053;-78
2024/01/17 05:32:23;;;;;;;;;;;18.70;61.40;;;;;;5104193;27;43452;-78
2024/01/17 05:34:50;;;;;;;;;;;18.60;61.30;;;;;;5104430;27;42990;-77
2024/01/17 05:37:16;;;;;;;;;;;18.70;61.10;;;;;;5078663;27;44436;-79
2024/01/17 05:39:41;;;;;;;;;;;18.70;61.00;;;;;;5106414;27;43003;-78
2024/01/17 05:42:07;;;;;;;;;;;18.60;60.50;;;;;;5105742;27;43557;-81
2024/01/17 05:44:32;;;;;;;;;;;18.60;60.20;;;;;;5112069;27;42937;-81
2024/01/17 05:46:58;;;;;;;;;;;18.60;60.70;;;;;;5111754;27;43518;-79
2024/01/17 05:49:23;;;;;;;;;;;18.70;60.60;;;;;;5083552;27;43081;-81
2024/01/17 05:51:50;;;;;;;;;;;18.70;60.20;;;;;;5105842;27;42948;-79
2024/01/17 05:54:15;;;;;;;;;;;18.70;60.00;;;;;;5096144;27;42839;-77
2024/01/17 05:56:41;;;;;;;;;;;18.60;59.10;;;;;;5104383;27;45489;-81
2024/01/17 05:59:06;;;;;;;;;;;18.60;58.90;;;;;;5101007;27;43037;-80
2024/01/17 06:01:34;;;;;;;;;;;18.60;57.80;;;;;;5104987;27;43383;-83
2024/01/17 06:03:59;;;;;;;;;;;18.60;59.60;;;;;;5101681;27;42917;-82
2024/01/17 06:06:25;;;;;;;;;;;18.70;60.00;;;;;;5091725;27;43505;-79
2024/01/17 06:08:50;;;;;;;;;;;18.60;60.10;;;;;;5103378;27;43225;-81
2024/01/17 06:11:16;;;;;;;;;;;18.70;60.00;;;;;;5106148;27;43913;-79
2024/01/17 06:13:42;;;;;;;;;;;18.70;59.80;;;;;;5105781;27;43014;-78
2024/01/17 06:16:07;;;;;;;;;;;18.70;59.90;;;;;;5106151;27;43432;-82
2024/01/17 06:18:33;;;;;;;;;;;18.70;60.20;;;;;;5106479;27;42902;-82
2024/01/17 06:20:59;;;;;;;;;;;18.70;60.20;;;;;;5105305;27;42947;-83
2024/01/17 06:23:24;;;;;;;;;;;18.70;59.70;;;;;;5106098;27;43084;-83
2024/01/17 06:25:50;;;;;;;;;;;18.70;60.20;;;;;;5105552;27;43413;-83
2024/01/17 06:28:18;;;;;;;;;;;18.80;60.30;;;;;;5105228;27;43125;-82
2024/01/17 06:30:43;;;;;;;;;;;18.70;60.30;;;;;;5106360;27;42881;-80
2024/01/17 06:33:10;;;;;;;;;;;18.80;60.40;;;;;;5106184;27;43004;-81
2024/01/17 06:35:35;;;;;;;;;;;18.80;60.30;;;;;;5106286;27;43495;-83
2024/01/17 06:38:01;;;;;;;;;;;18.80;60.50;;;;;;5106129;27;43015;-83
2024/01/17 06:40:26;;;;;;;;;;;18.80;60.50;;;;;;5087230;27;43775;-79
2024/01/17 06:42:52;;;;;;;;;;;18.70;60.50;;;;;;5106304;27;43150;-80
2024/01/17 06:45:18;;;;;;;;;;;18.70;60.40;;;;;;5106045;27;43016;-82
2024/01/17 06:47:43;;;;;;;;;;;18.80;60.60;;;;;;5105711;27;43027;-82
2024/01/17 06:50:09;;;;;;;;;;;18.70;60.50;;;;;;5106233;27;43628;-82
2024/01/17 06:52:35;;;;;;;;;;;18.70;60.60;;;;;;5105750;27;42960;-83
2024/01/17 06:55:00;;;;;;;;;;;18.70;60.70;;;;;;5104064;27;43484;-82
2024/01/17 06:57:26;;;;;;;;;;;18.70;60.70;;;;;;5105045;27;43040;-80
2024/01/17 06:59:52;;;;;;;;;;;18.70;60.70;;;;;;5106052;27;42977;-82
2024/01/17 07:02:17;;;;;;;;;;;18.70;60.70;;;;;;5105443;27;42907;-82
2024/01/17 07:04:43;;;;;;;;;;;18.70;60.80;;;;;;5105322;27;42879;-84
2024/01/17 07:07:08;;;;;;;;;;;18.70;60.80;;;;;;5105540;27;42985;-83
2024/01/17 07:09:34;;;;;;;;;;;18.70;60.80;;;;;;5105209;27;43709;-79
2024/01/17 07:12:00;;;;;;;;;;;18.70;60.80;;;;;;5105030;27;42902;-83
2024/01/17 07:14:25;;;;;;;;;;;18.70;60.80;;;;;;5105559;27;44194;-80
2024/01/17 07:16:51;;;;;;;;;;;18.70;60.90;;;;;;5105561;27;42958;-83
2024/01/17 07:19:16;;;;;;;;;;;18.70;60.80;;;;;;5105366;27;43607;-82
2024/01/17 07:21:42;;;;;;;;;;;18.70;60.80;;;;;;5105435;27;43229;-82
2024/01/17 07:24:08;;;;;;;;;;;18.70;60.90;;;;;;5105227;27;42996;-82
2024/01/17 07:26:33;;;;;;;;;;;18.70;60.90;;;;;;5105486;27;43137;-81
2024/01/17 07:28:59;;;;;;;;;;;18.70;61.00;;;;;;5105658;27;43718;-82
2024/01/17 07:31:25;;;;;;;;;;;18.60;61.00;;;;;;5105948;27;43172;-83
2024/01/17 07:33:52;;;;;;;;;;;18.60;61.10;;;;;;5086605;27;44145;-83
2024/01/17 07:36:18;;;;;;;;;;;18.60;61.00;;;;;;5105393;27;43043;-82
2024/01/17 07:38:43;;;;;;;;;;;18.60;61.00;;;;;;5104392;27;43619;-81
2024/01/17 07:41:09;;;;;;;;;;;18.60;61.10;;;;;;5103714;27;42890;-82
2024/01/17 07:43:34;;;;;;;;;;;18.60;60.70;;;;;;5105198;27;43327;-83
2024/01/17 07:46:00;;;;;;;;;;;18.60;61.30;;;;;;5104416;27;42969;-83
2024/01/17 07:48:26;;;;;;;;;;;18.60;61.20;;;;;;5104049;27;42863;-81
2024/01/17 07:50:52;;;;;;;;;;;18.60;61.30;;;;;;5104957;27;43075;-83
2024/01/17 07:53:17;;;;;;;;;;;18.60;61.30;;;;;;5104993;27;43591;-82
2024/01/17 07:55:43;;;;;;;;;;;18.60;61.20;;;;;;5104684;27;42951;-82
2024/01/17 07:58:10;;;;;;;;;;;18.60;61.40;;;;;;5104871;27;43155;-84
2024/01/17 08:00:35;;;;;;;;;;;18.60;61.30;;;;;;5104738;27;43044;-83
2024/01/17 08:03:01;;;;;;;;;;;18.60;61.40;;;;;;5104931;27;43476;-81
2024/01/17 08:05:26;;;;;;;;;;;18.60;61.50;;;;;;5104848;27;43803;-82
2024/01/17 08:07:52;;;;;;;;;;;18.60;56.40;;;;;;5108790;27;42996;-86
2024/01/17 08:10:17;;;;;;;;;;;18.60;55.10;;;;;;5115751;27;43561;-85
2024/01/17 08:12:44;;;;;;;;;;;18.50;55.00;;;;;;5105000;27;43019;-88
2024/01/17 08:15:10;;;;;;;;;;;18.40;54.90;;;;;;5105307;27;42773;-85
2024/01/17 08:17:36;;;;;;;;;;;18.40;56.30;;;;;;5097106;27;43864;-82
2024/01/17 08:20:03;;;;;;;;;;;18.40;55.90;;;;;;5103155;27;44280;-88
2024/01/17 08:22:29;;;;;;;;;;;18.40;55.30;;;;;;5104307;27;43608;-85
2024/01/17 08:24:54;;;;;;;;;;;18.40;55.50;;;;;;5101807;27;42902;-86
2024/01/17 08:27:19;;;;;;;;;;;18.40;55.60;;;;;;5097586;27;43060;-81
2024/01/17 08:29:46;;;;;;;;;;;18.40;55.50;;;;;;5104284;27;43000;-74
2024/01/17 08:32:11;;;;;;;;;;;18.40;55.60;;;;;;5103917;27;43323;-85
2024/01/17 08:34:37;;;;;;;;;;;18.40;55.70;;;;;;5104103;27;43091;-84
2024/01/17 08:37:03;;;;;;;;;;;18.40;55.90;;;;;;5104046;27;43004;-83
2024/01/17 08:39:29;;;;;;;;;;;18.40;55.80;;;;;;5104231;27;43093;-83
2024/01/17 08:41:54;;;;;;;;;;;18.40;55.80;;;;;;5104521;27;43636;-86
2024/01/17 08:44:20;;;;;;;;;;;18.40;55.90;;;;;;5103686;27;42817;-75
2024/01/17 08:46:46;;;;;;;;;;;18.50;56.00;;;;;;5103846;27;42831;-86
2024/01/17 08:49:12;;;;;;;;;;;18.50;55.80;;;;;;5103613;27;43032;-87
2024/01/17 08:51:37;;;;;;;;;;;18.50;55.70;;;;;;5104789;27;43909;-79
2024/01/17 08:54:06;;;;;;;;;;;18.50;55.60;;;;;;5106684;27;42886;-84
2024/01/17 08:56:32;;;;;;;;;;;18.60;55.60;;;;;;5106631;27;43890;-85
2024/01/17 08:58:58;;;;;;;;;;;18.60;55.80;;;;;;5107445;27;42926;-87
2024/01/17 09:01:23;;;;;;;;;;;18.50;55.60;;;;;;5107378;27;42972;-87
2024/01/17 09:03:49;;;;;;;;;;;18.60;55.70;;;;;;5107156;27;42870;-86
2024/01/17 09:06:14;;;;;;;;;;;18.60;55.70;;;;;;5107257;27;43505;-87
2024/01/17 09:08:39;;;;;;;;;;;18.60;55.90;;;;;;5107625;27;42945;-82
2024/01/17 09:11:08;;;;;;;;;;;18.50;55.60;;;;;;5107085;27;43585;-85
2024/01/17 09:13:34;;;;;;;;;;;18.60;55.80;;;;;;5107231;27;42950;-83
2024/01/17 09:16:00;;;;;;;;;;;18.60;55.90;;;;;;5107489;27;42991;-85
2024/01/17 09:18:25;;;;;;;;;;;18.60;55.90;;;;;;5107397;27;43339;-84
2024/01/17 09:20:51;;;;;;;;;;;18.60;55.90;;;;;;5107218;27;42975;-86
2024/01/17 09:23:16;;;;;;;;;;;18.60;56.30;;;;;;5107403;27;42954;-85
2024/01/17 09:25:42;;;;;;;;;;;18.60;56.10;;;;;;5107128;27;42971;-86
2024/01/17 09:28:09;;;;;;;;;;;18.60;56.10;;;;;;5107012;27;43174;-78
2024/01/17 09:30:34;;;;;;;;;;;18.60;56.00;;;;;;5107285;27;43771;-86
2024/01/17 09:33:00;;;;;;;;;;;18.60;56.10;;;;;;5106619;27;43120;-79
2024/01/17 09:35:25;;;;;;;;;;;18.60;56.30;;;;;;5106671;27;42952;-83
2024/01/17 09:37:52;;;;;;;;;;;18.60;56.30;;;;;;5106338;27;43130;-86
2024/01/17 09:40:17;;;;;;;;;;;18.70;56.30;;;;;;5094371;27;45378;-76
2024/01/17 09:42:43;;;;;;;;;;;18.60;56.10;;;;;;5100954;27;42933;-87
2024/01/17 09:45:09;;;;;;;;;;;18.60;56.40;;;;;;5106069;27;42956;-78
2024/01/17 09:47:35;;;;;;;;;;;18.70;56.40;;;;;;5106048;27;42988;-79
2024/01/17 09:50:00;;;;;;;;;;;16.10;55.40;;;;;;5105713;27;43054;-85
2024/01/17 09:52:26;;;;;;;;;;;18.60;56.30;;;;;;5106090;27;42877;-87
2024/01/17 09:54:52;;;;;;;;;;;18.70;56.30;;;;;;5106133;27;42961;-76
2024/01/17 09:57:24;;;;;;;;;;;18.70;56.60;;;;;;5107501;27;42945;-83
2024/01/17 09:59:55;;;;;;;;;;;18.60;56.40;;;;;;5107182;27;43989;-78
2024/01/17 10:02:21;;;;;;;;;;;18.60;56.30;;;;;;5105314;27;42993;-86
2024/01/17 10:04:48;;;;;;;;;;;18.60;56.50;;;;;;5106271;27;44456;-88
2024/01/17 10:07:14;;;;;;;;;;;18.60;56.40;;;;;;5102646;27;42885;-89
2024/01/17 10:09:40;;;;;;;;;;;18.70;56.60;;;;;;5106324;27;43594;-85
2024/01/17 10:12:06;;;;;;;;;;;18.60;56.60;;;;;;5106342;27;42935;-88
2024/01/17 10:14:32;;;;;;;;;;;18.70;56.70;;;;;;5105871;27;42884;-86
2024/01/17 10:16:58;;;;;;;;;;;18.70;56.70;;;;;;5106260;27;42981;-84
2024/01/17 10:19:24;;;;;;;;;;;18.70;56.80;;;;;;5106162;27;43317;-84
2024/01/17 10:21:50;;;;;;;;;;;18.70;56.80;;;;;;5106804;27;42910;-85
2024/01/17 10:24:15;;;;;;;;;;;18.60;56.10;;;;;;5106239;27;44175;-84
2024/01/17 10:26:41;;;;;;;;;;;18.70;56.70;;;;;;5105872;27;42961;-83
2024/01/17 10:29:07;;;;;;;;;;;18.70;56.70;;;;;;5105888;27;42952;-84
2024/01/17 10:31:33;;;;;;;;;;;18.70;56.60;;;;;;5105046;27;43022;-82
2024/01/17 10:33:59;;;;;;;;;;;18.70;56.20;;;;;;5111845;27;44128;-85
2024/01/17 10:36:25;;;;;;;;;;;19.90;57.40;;;;;;5110929;27;42926;-85
2024/01/17 10:38:50;;;;;;;;;;;18.70;56.40;;;;;;5105720;27;43074;-83
2024/01/17 10:41:16;;;;;;;;;;;18.70;56.80;;;;;;5105680;27;42907;-85
2024/01/17 10:43:54;;;;;;;;;;;18.70;56.70;;;;;;5106113;27;42927;-83
2024/01/17 10:46:20;;;;;;;;;;;18.70;56.80;;;;;;5105861;27;42962;-83
2024/01/17 10:48:46;;;;;;;;;;;18.70;56.80;;;;;;5106225;27;42969;-85
2024/01/17 10:51:18;;;;;;;;;;;18.70;56.80;;;;;;5105385;27;43048;-85
2024/01/17 10:53:45;;;;;;;;;;;18.70;56.70;;;;;;5105659;27;43165;-85
2024/01/17 10:56:11;;;;;;;;;;;18.70;56.80;;;;;;5105256;27;43058;-79
2024/01/17 10:58:37;;;;;;;;;;;18.70;57.30;;;;;;5105455;27;43502;-78
2024/01/17 11:01:07;;;;;;;;;;;18.70;56.80;;;;;;5106012;27;43003;-86
2024/01/17 11:03:36;;;;;;;;;;;18.70;56.80;;;;;;5104321;27;42925;-84
2024/01/17 11:06:02;;;;;;;;;;;18.70;56.80;;;;;;5105477;27;43174;-82
2024/01/17 11:08:28;;;;;;;;;;;18.70;56.70;;;;;;5104573;27;43735;-78
2024/01/17 11:10:54;;;;;;;;;;;18.70;56.70;;;;;;5094659;27;43065;-85
2024/01/17 11:13:20;;;;;;;;;;;18.70;56.80;;;;;;5098648;27;44187;-80
2024/01/17 11:15:46;;;;;;;;;;;18.70;56.70;;;;;;5104953;27;43072;-76
2024/01/17 11:18:12;;;;;;;;;;;18.70;56.70;;;;;;5105050;27;43024;-79
2024/01/17 11:20:39;;;;;;;;;;;18.70;56.70;;;;;;5104911;27;42877;-84
2024/01/17 11:23:07;;;;;;;;;;;18.70;56.70;;;;;;5103923;27;43248;-83
2024/01/17 11:25:34;;;;;;;;;;;18.70;56.60;;;;;;5105115;27;42979;-84
2024/01/17 11:28:04;;;;;;;;;;;18.80;56.70;;;;;;5102795;27;43014;-79
2024/01/17 11:30:36;;;;;;;;;;;18.70;56.50;;;;;;5095165;27;43726;-78
2024/01/17 11:33:05;;;;;;;;;;;18.70;56.60;;;;;;5103926;27;42956;-85
2024/01/17 11:35:39;;;;;;;;;;;18.70;51.00;;;;;;5102205;27;42917;-84
2024/01/17 11:38:10;;;;;;;;;;;18.40;46.30;;;;;;5099792;27;43052;-85
2024/01/17 11:40:36;;;;;;;;;;;18.10;44.80;;;;;;5092656;27;43017;-84
2024/01/17 11:43:02;;;;;;;;;;;17.90;47.40;;;;;;5103777;27;43143;-86
2024/01/17 11:45:28;;;;;;;;;;;17.80;48.90;;;;;;5103260;27;42980;-85
2024/01/17 11:47:56;;;;;;;;;;;17.90;50.30;;;;;;5101861;27;43871;-86
2024/01/17 11:50:22;;;;;;;;;;;18.00;51.40;;;;;;5102235;27;43418;-87
2024/01/17 11:52:47;;;;;;;;;;;18.10;52.20;;;;;;5103641;27;43221;-87
2024/01/17 11:55:15;;;;;;;;;;;18.20;52.90;;;;;;5097783;27;42996;-87
2024/01/17 11:57:40;;;;;;;;;;;18.20;53.10;;;;;;5096310;27;43059;-88
2024/01/17 12:00:11;;;;;;;;;;;18.30;53.00;;;;;;5101606;27;42936;-85
2024/01/17 12:02:37;;;;;;;;;;;18.30;53.40;;;;;;5092564;27;43081;-86
2024/01/17 12:05:06;;;;;;;;;;;18.40;53.70;;;;;;5084695;27;43134;-85
2024/01/17 12:07:36;;;;;;;;;;;18.50;53.30;;;;;;5086239;27;44546;-87
2024/01/17 12:10:07;;;;;;;;;;;18.50;53.30;;;;;;5101232;27;43195;-87
2024/01/17 12:12:33;;;;;;;;;;;18.60;53.90;;;;;;5103831;27;43326;-86
2024/01/17 12:14:59;;;;;;;;;;;18.60;53.90;;;;;;5090018;27;43006;-86
2024/01/17 12:17:24;;;;;;;;;;;18.60;53.90;;;;;;5085956;27;43029;-86
2024/01/17 12:19:51;;;;;;;;;;;18.70;54.50;;;;;;5106747;27;42907;-85
2024/01/17 12:22:16;;;;;;;;;;;18.70;54.00;;;;;;5093367;27;43984;-86
2024/01/17 12:24:42;;;;;;;;;;;18.70;54.00;;;;;;5104356;27;42999;-86
2024/01/17 12:27:07;;;;;;;;;;;18.70;54.00;;;;;;5105434;27;43209;-85
2024/01/17 12:29:36;;;;;;;;;;;18.70;54.00;;;;;;5104577;27;43007;-86
2024/01/17 12:32:02;;;;;;;;;;;18.70;53.90;;;;;;5100628;27;43884;-86
2024/01/17 12:34:27;;;;;;;;;;;18.80;54.00;;;;;;5106235;27;43137;-80
2024/01/17 12:36:53;;;;;;;;;;;18.70;53.50;;;;;;5092834;27;44249;-84
2024/01/17 12:39:20;;;;;;;;;;;21.20;55.00;;;;;;5103089;27;43033;-80
2024/01/17 12:41:46;;;;;;;;;;;18.70;54.10;;;;;;5106583;27;43758;-81
2024/01/17 12:44:11;;;;;;;;;;;18.80;54.20;;;;;;5107290;27;43393;-80
2024/01/17 12:46:37;;;;;;;;;;;18.80;54.30;;;;;;5106771;27;43722;-77
2024/01/17 12:49:04;;;;;;;;;;;18.80;54.40;;;;;;5107033;27;43055;-81
2024/01/17 12:51:31;;;;;;;;;;;18.80;54.40;;;;;;5107293;27;42917;-80
2024/01/17 12:53:57;;;;;;;;;;;18.70;54.00;;;;;;5087905;27;42904;-80
2024/01/17 12:56:23;;;;;;;;;;;18.80;54.60;;;;;;5107611;27;43838;-78
2024/01/17 12:58:48;;;;;;;;;;;18.80;54.60;;;;;;5108153;27;43045;-79
2024/01/17 13:01:16;;;;;;;;;;;18.80;54.70;;;;;;5114362;27;43000;-75
2024/01/17 13:03:44;;;;;;;;;;;18.80;54.30;;;;;;5089439;27;43125;-81
2024/01/17 13:06:12;;;;;;;;;;;18.80;54.80;;;;;;5107052;27;43015;-75
2024/01/17 13:08:38;;;;;;;;;;;18.80;54.90;;;;;;5107276;27;42929;-80
2024/01/17 13:11:13;;;;;;;;;;;18.80;54.90;;;;;;5106425;27;43629;-80
2024/01/17 13:13:39;;;;;;;;;;;18.80;54.90;;;;;;5106686;27;42980;-81
2024/01/17 13:16:05;;;;;;;;;;;18.80;55.00;;;;;;5106756;27;43155;-79
2024/01/17 13:18:30;;;;;;;;;;;18.70;54.60;;;;;;5087839;27;43399;-78
2024/01/17 13:21:09;;;;;;;;;;;18.80;55.10;;;;;;5100700;27;43360;-78
2024/01/17 13:23:34;;;;;;;;;;;18.80;55.10;;;;;;5104501;27;43151;-80
2024/01/17 13:26:00;;;;;;;;;;;18.80;55.30;;;;;;5105747;27;43459;-79
2024/01/17 13:28:25;;;;;;;;;;;18.80;55.30;;;;;;5098180;27;43013;-81
2024/01/17 13:30:51;;;;;;;;;;;18.80;55.30;;;;;;5105248;27;43022;-76
2024/01/17 13:33:18;;;;;;;;;;;18.80;55.30;;;;;;5106287;27;43148;-82
2024/01/17 13:35:43;;;;;;;;;;;18.80;55.30;;;;;;5106168;27;43347;-81
2024/01/17 13:38:09;;;;;;;;;;;18.90;55.40;;;;;;5105500;27;43057;-77
2024/01/17 13:40:36;;;;;;;;;;;18.80;55.40;;;;;;5105687;27;43094;-80
2024/01/17 13:43:03;;;;;;;;;;;18.80;55.40;;;;;;5105836;27;42930;-77
2024/01/17 13:45:29;;;;;;;;;;;18.80;55.50;;;;;;5105843;27;43907;-79
2024/01/17 13:47:55;;;;;;;;;;;18.90;55.50;;;;;;5105753;27;43056;-82
2024/01/17 13:50:22;;;;;;;;;;;18.90;55.60;;;;;;5106348;27;43408;-80
2024/01/17 13:52:50;;;;;;;;;;;18.80;55.50;;;;;;5106374;27;43348;-82
2024/01/17 13:55:17;;;;;;;;;;;18.90;55.60;;;;;;5106949;27;42905;-82
2024/01/17 13:57:43;;;;;;;;;;;18.80;55.60;;;;;;5106375;27;43191;-76
2024/01/17 14:00:09;;;;;;;;;;;18.80;55.70;;;;;;5106681;27;43281;-79
2024/01/17 14:02:34;;;;;;;;;;;18.90;55.70;;;;;;5106397;27;43089;-82
2024/01/17 14:05:00;;;;;;;;;;;18.90;55.70;;;;;;5106839;27;43600;-79
2024/01/17 14:07:25;;;;;;;;;;;18.90;55.80;;;;;;5106517;27;42948;-81
2024/01/17 14:09:51;;;;;;;;;;;18.90;55.80;;;;;;5105966;27;42949;-81